createdAt,value
2018-04-19T00:02:07.290Z,40.90
2018-04-19T00:04:35.538Z,42.10
2018-04-19T00:07:03.616Z,40.10
2018-04-19T00:09:31.726Z,40.73
2018-04-19T00:11:59.851Z,45.03
2018-04-19T00:14:27.946Z,38.13
2018-04-19T00:16:56.049Z,41.33
2018-04-19T00:19:24.146Z,42.67
2018-04-19T00:21:52.245Z,42.63
2018-04-19T00:34:05.343Z,45.47
2018-04-19T00:36:34.770Z,43.37
2018-04-19T00:39:02.862Z,46.43
2018-04-19T00:41:30.960Z,41.53
2018-04-19T00:43:59.123Z,41.17
2018-04-19T00:46:27.515Z,42.20
2018-04-19T00:48:55.583Z,53.93
2018-04-19T00:51:23.680Z,46.20
2018-04-19T00:53:51.795Z,43.77
2018-04-19T00:56:19.891Z,46.13
2018-04-19T00:58:47.982Z,52.17
2018-04-19T01:01:16.352Z,42.07
2018-04-19T01:13:29.457Z,42.43
2018-04-19T01:15:57.601Z,49.43
2018-04-19T01:18:25.675Z,47.40
2018-04-19T01:20:53.803Z,50.83
2018-04-19T01:23:22.755Z,46.77
2018-04-19T01:25:50.876Z,41.60
2018-04-19T01:28:18.990Z,46.27
2018-04-19T01:30:47.095Z,47.13
2018-04-19T01:33:16.105Z,44.33
2018-04-19T01:35:56.027Z,43.70
2018-04-19T01:38:24.135Z,41.87
2018-04-19T01:40:52.266Z,45.43
2018-04-19T01:43:20.425Z,46.37
2018-04-19T01:45:48.521Z,45.23
2018-04-19T01:48:16.643Z,46.13
2018-04-19T01:50:44.744Z,42.60
2018-04-19T01:53:12.828Z,48.77
2018-04-19T01:55:40.919Z,41.43
2018-04-19T01:58:09.315Z,42.03
2018-04-19T02:00:37.411Z,45.77
2018-04-19T02:03:05.513Z,43.50
2018-04-19T02:05:36.087Z,46.83
2018-04-19T02:08:04.532Z,43.73
2018-04-19T02:10:32.604Z,48.70
2018-04-19T02:13:00.715Z,48.50
2018-04-19T02:15:28.803Z,47.43
2018-04-19T02:17:57.259Z,44.63
2018-04-19T02:20:25.362Z,45.70
2018-04-19T02:22:53.451Z,47.50
2018-04-19T02:25:21.906Z,45.20
2018-04-19T02:27:50.359Z,46.23
2018-04-19T02:30:18.478Z,48.17
2018-04-19T02:32:46.583Z,41.93
2018-04-19T02:35:14.676Z,46.23
2018-04-19T02:37:42.779Z,46.77
2018-04-19T02:40:10.871Z,46.33
2018-04-19T02:42:39.295Z,51.13
2018-04-19T02:45:07.391Z,46.43
2018-04-19T02:47:35.507Z,42.40
2018-04-19T02:50:03.624Z,44.50
2018-04-19T02:52:31.722Z,47.20
2018-04-19T02:54:59.816Z,42.30
2018-04-19T02:57:27.912Z,43.47
2018-04-19T02:59:56.012Z,42.73
2018-04-19T03:02:24.124Z,39.80
2018-04-19T03:04:52.247Z,44.73
2018-04-19T03:07:20.348Z,48.30
2018-04-19T03:09:48.457Z,39.07
2018-04-19T03:12:16.570Z,44.40
2018-04-19T03:14:44.659Z,45.93
2018-04-19T03:17:12.766Z,41.10
2018-04-19T03:19:40.850Z,46.30
2018-04-19T03:22:08.939Z,45.53
2018-04-19T03:24:37.055Z,42.77
2018-04-19T03:27:05.176Z,39.80
2018-04-19T03:29:33.251Z,43.33
2018-04-19T03:32:02.384Z,41.23
2018-04-19T03:34:30.471Z,38.37
2018-04-19T03:36:59.215Z,40.07
2018-04-19T03:39:27.327Z,43.33
2018-04-19T03:41:55.415Z,47.53
2018-04-19T03:44:23.503Z,42.97
2018-04-19T03:46:51.624Z,43.80
2018-04-19T03:49:19.711Z,42.70
2018-04-19T03:51:48.139Z,39.80
2018-04-19T03:54:16.563Z,45.37
2018-04-19T03:56:44.669Z,38.97
2018-04-19T03:59:12.749Z,36.53
2018-04-19T04:01:40.843Z,49.07
2018-04-19T04:04:08.927Z,46.63
2018-04-19T04:06:37.363Z,38.70
2018-04-19T04:09:05.483Z,42.27
2018-04-19T04:11:33.611Z,38.97
2018-04-19T04:14:01.731Z,42.73
2018-04-19T04:16:41.678Z,47.13
2018-04-19T04:19:21.679Z,40.13
2018-04-19T04:22:01.700Z,39.37
2018-04-19T04:24:29.803Z,41.90
2018-04-19T04:26:58.703Z,41.90
2018-04-19T04:29:26.789Z,41.57
2018-04-19T04:31:56.489Z,40.67
2018-04-19T04:34:26.277Z,37.57
2018-04-19T04:36:54.387Z,44.30
2018-04-19T04:52:27.735Z,41.30
2018-04-19T04:54:56.255Z,40.27
2018-04-19T04:57:24.345Z,37.33
2018-04-19T04:59:52.455Z,38.43
2018-04-19T05:02:20.552Z,40.33
2018-04-19T05:04:48.647Z,39.47
2018-04-19T05:07:17.383Z,38.17
2018-04-19T05:09:45.477Z,37.03
2018-04-19T05:12:13.621Z,34.77
2018-04-19T05:14:41.715Z,37.03
2018-04-19T05:17:09.811Z,40.00
2018-04-19T05:19:37.915Z,38.67
2018-04-19T05:22:06.611Z,44.37
2018-04-19T05:24:34.723Z,37.70
2018-04-19T05:27:02.899Z,38.67
2018-04-19T05:29:31.077Z,43.37
2018-04-19T05:31:59.167Z,34.37
2018-04-19T05:34:27.923Z,40.30
2018-04-19T05:36:56.664Z,42.67
2018-04-19T05:39:25.244Z,34.87
2018-04-19T05:41:53.726Z,38.67
2018-04-19T05:44:21.831Z,42.47
2018-04-19T05:46:49.925Z,41.47
2018-04-19T05:49:18.393Z,41.03
2018-04-19T05:51:46.464Z,36.57
2018-04-19T05:54:14.555Z,42.37
2018-04-19T06:06:28.561Z,38.50
2018-04-19T06:08:56.663Z,37.07
2018-04-19T06:11:24.779Z,36.33
2018-04-19T06:13:52.895Z,35.73
2018-04-19T06:16:21.013Z,39.90
2018-04-19T06:18:49.090Z,40.53
2018-04-19T06:21:17.207Z,39.07
2018-04-19T06:23:45.303Z,32.00
2018-04-19T06:26:13.406Z,36.37
2018-04-19T06:28:42.384Z,36.47
2018-04-19T06:31:10.481Z,33.83
2018-04-19T06:33:38.591Z,33.97
2018-04-19T06:36:06.741Z,34.70
2018-04-19T06:38:34.824Z,34.63
2018-04-19T06:41:02.932Z,34.67
2018-04-19T06:43:31.081Z,34.53
2018-04-19T06:45:59.195Z,32.90
2018-04-19T06:48:28.182Z,31.17
2018-04-19T06:50:56.280Z,32.27
2018-04-19T06:53:24.383Z,32.40
2018-04-19T06:55:52.570Z,31.90
2018-04-19T06:58:20.632Z,33.00
2018-04-19T07:00:48.759Z,29.27
2018-04-19T07:03:17.093Z,28.17
2018-04-19T07:05:45.188Z,33.03
2018-04-19T07:08:13.299Z,28.13
2018-04-19T07:10:41.421Z,28.70
2018-04-19T07:13:11.710Z,34.53
2018-04-19T07:15:39.819Z,26.43
2018-04-19T07:18:07.956Z,31.47
2018-04-19T07:20:36.053Z,27.27
2018-04-19T07:32:49.159Z,25.77
2018-04-19T07:35:17.251Z,24.23
2018-04-19T07:37:46.315Z,27.63
2018-04-19T07:40:14.694Z,27.10
2018-04-19T07:55:42.795Z,27.00
2018-04-19T07:58:10.895Z,23.70
2018-04-19T08:00:38.987Z,24.57
2018-04-19T08:03:07.112Z,25.20
2018-04-19T08:05:35.212Z,24.20
2018-04-19T08:08:03.312Z,25.93
2018-04-19T08:10:31.414Z,27.33
2018-04-19T08:12:59.758Z,21.17
2018-04-19T08:15:28.029Z,23.37
2018-04-19T08:17:56.372Z,21.97
2018-04-19T08:20:24.980Z,20.70
2018-04-19T08:22:53.094Z,21.97
2018-04-19T08:25:21.220Z,15.67
2018-04-19T08:27:49.614Z,16.30
2018-04-19T08:30:19.272Z,15.03
2018-04-19T08:32:47.395Z,17.50
2018-04-19T08:35:15.487Z,17.07
2018-04-19T08:37:44.232Z,20.53
2018-04-19T08:40:12.336Z,15.20
2018-04-19T08:42:40.439Z,17.43
2018-04-19T08:45:08.543Z,20.20
2018-04-19T08:47:36.646Z,20.27
2018-04-19T08:50:05.111Z,19.63
2018-04-19T08:52:33.307Z,22.13
2018-04-19T08:55:01.415Z,20.50
2018-04-19T08:57:29.519Z,18.20
2018-04-19T08:59:57.637Z,19.30
2018-04-19T09:02:25.719Z,17.10
2018-04-19T09:04:54.164Z,17.37
2018-04-19T09:07:22.313Z,16.63
2018-04-19T09:09:50.415Z,20.33
2018-04-19T09:12:19.381Z,21.47
2018-04-19T09:14:47.534Z,20.97
2018-04-19T09:17:15.620Z,17.27
2018-04-19T09:19:43.709Z,18.60
2018-04-19T09:22:12.168Z,18.10
2018-04-19T09:24:40.252Z,16.13
2018-04-19T09:27:09.026Z,17.63
2018-04-19T09:29:42.074Z,21.17
2018-04-19T09:32:10.307Z,19.43
2018-04-19T09:34:38.642Z,27.00
2018-04-19T09:37:12.404Z,20.53
2018-04-19T09:39:42.004Z,19.57
2018-04-19T09:42:10.181Z,19.87
2018-04-19T09:44:38.340Z,19.53
2018-04-19T09:47:06.514Z,20.60
2018-04-19T09:49:34.628Z,23.20
2018-04-19T09:52:03.038Z,26.37
2018-04-19T09:54:31.135Z,23.03
2018-04-19T09:57:00.055Z,20.57
2018-04-19T09:59:28.139Z,25.00
2018-04-19T10:02:01.803Z,19.87
2018-04-19T10:04:29.894Z,20.30
2018-04-19T10:06:57.998Z,21.90
2018-04-19T10:09:26.110Z,22.50
2018-04-19T10:11:54.198Z,23.40
2018-04-19T10:14:22.341Z,18.13
2018-04-19T10:16:50.432Z,18.97
2018-04-19T10:19:18.552Z,20.47
2018-04-19T10:21:46.630Z,22.27
2018-04-19T10:24:15.669Z,18.03
2018-04-19T10:26:44.195Z,25.20
2018-04-19T10:29:12.391Z,19.67
2018-04-19T10:31:40.771Z,22.67
2018-04-19T10:34:08.858Z,18.83
2018-04-19T10:36:36.963Z,18.47
2018-04-19T10:39:05.798Z,16.00
2018-04-19T10:41:33.880Z,16.80
2018-04-19T10:44:02.022Z,19.83
2018-04-19T10:46:30.214Z,20.30
2018-04-19T10:48:58.290Z,20.53
2018-04-19T10:51:26.374Z,20.57
2018-04-19T10:53:54.651Z,15.20
2018-04-19T10:56:22.739Z,16.40
2018-04-19T10:58:51.016Z,14.63
2018-04-19T11:01:19.454Z,14.40
2018-04-19T11:03:47.526Z,14.07
2018-04-19T11:06:15.621Z,12.90
2018-04-19T11:08:43.776Z,11.53
2018-04-19T11:11:12.706Z,14.07
2018-04-19T11:13:40.801Z,11.23
2018-04-19T11:16:09.400Z,11.80
2018-04-19T11:18:38.168Z,13.80
2018-04-19T11:21:06.245Z,12.93
2018-04-19T11:23:34.347Z,11.93
2018-04-19T11:26:02.828Z,11.23
2018-04-19T11:28:30.971Z,11.30
2018-04-19T11:30:59.179Z,11.50
2018-04-19T11:33:28.192Z,13.07
2018-04-19T11:35:57.048Z,13.13
2018-04-19T11:38:25.131Z,14.33
2018-04-19T11:40:53.319Z,13.50
2018-04-19T11:43:21.616Z,12.77
2018-04-19T11:45:49.708Z,13.73
2018-04-19T11:48:18.339Z,13.37
2018-04-19T11:50:47.239Z,16.00
2018-04-19T11:53:15.366Z,20.43
2018-04-19T11:55:43.463Z,15.33
2018-04-19T11:58:11.825Z,19.23
2018-04-19T12:00:39.916Z,15.77
2018-04-19T12:03:08.420Z,15.47
2018-04-19T12:05:36.534Z,14.93
2018-04-19T12:08:04.630Z,19.53
2018-04-19T12:10:32.718Z,16.27
2018-04-19T12:13:00.832Z,13.87
2018-04-19T12:15:28.929Z,14.70
2018-04-19T12:17:57.026Z,12.80
2018-04-19T12:20:25.386Z,15.73
2018-04-19T12:22:53.489Z,14.20
2018-04-19T12:38:26.606Z,14.37
2018-04-19T12:40:54.760Z,17.33
2018-04-19T12:43:22.855Z,10.33
2018-04-19T12:45:51.971Z,14.20
2018-04-19T12:48:20.048Z,13.30
2018-04-19T13:00:38.156Z,15.80
2018-04-19T13:03:06.299Z,15.77
2018-04-19T13:05:35.298Z,15.93
2018-04-19T13:08:03.469Z,11.80
2018-04-19T13:10:32.403Z,15.53
2018-04-19T13:13:00.543Z,14.90
2018-04-19T13:15:28.835Z,16.00
2018-04-19T13:17:56.938Z,14.80
2018-04-19T13:20:25.059Z,14.43
2018-04-19T13:22:53.350Z,14.40
2018-04-19T13:25:21.456Z,15.20
2018-04-19T13:27:50.130Z,19.27
2018-04-19T13:30:18.242Z,14.07
2018-04-19T13:32:46.357Z,14.77
2018-04-19T13:35:15.330Z,13.57
2018-04-19T13:37:43.437Z,11.53
2018-04-19T13:40:11.551Z,24.40
2018-04-19T13:42:39.738Z,11.87
2018-04-19T13:45:07.848Z,13.00
2018-04-19T13:47:37.416Z,17.87
2018-04-19T13:50:05.503Z,10.83
2018-04-19T13:52:33.655Z,13.67
2018-04-19T13:55:01.907Z,11.23
2018-04-19T13:57:30.206Z,10.50
2018-04-19T13:59:58.420Z,11.63
2018-04-19T14:02:28.342Z,11.60
2018-04-19T14:04:56.437Z,12.03
2018-04-19T14:07:24.557Z,10.97
2018-04-19T14:09:53.272Z,11.77
2018-04-19T14:12:21.719Z,9.87
2018-04-19T14:14:55.353Z,15.93
2018-04-19T14:17:23.817Z,9.67
2018-04-19T14:19:52.680Z,10.77
2018-04-19T14:22:21.120Z,12.37
2018-04-19T14:24:49.171Z,8.90
2018-04-19T14:27:17.286Z,8.57
2018-04-19T14:29:45.754Z,11.67
2018-04-19T14:32:13.895Z,9.60
2018-04-19T14:34:42.004Z,8.90
2018-04-19T14:37:10.203Z,9.77
2018-04-19T14:39:38.320Z,7.77
2018-04-19T14:42:06.395Z,6.50
2018-04-19T14:44:34.501Z,9.67
2018-04-19T14:47:02.588Z,7.47
2018-04-19T14:49:30.740Z,7.30
2018-04-19T14:51:58.833Z,8.70
2018-04-19T14:54:26.921Z,6.80
2018-04-19T14:56:55.244Z,9.27
2018-04-19T14:59:23.332Z,6.30
2018-04-19T15:01:52.427Z,5.97
2018-04-19T15:04:20.488Z,6.23
2018-04-19T15:06:48.568Z,7.13
2018-04-19T15:09:16.712Z,5.83
2018-04-19T15:11:44.764Z,8.93
2018-04-19T15:14:12.835Z,5.77
2018-04-19T15:16:41.233Z,5.10
2018-04-19T15:19:09.300Z,4.67
2018-04-19T15:21:37.519Z,6.60
2018-04-19T15:24:05.597Z,4.37
2018-04-19T15:26:38.676Z,4.63
2018-04-19T15:29:06.755Z,5.60
2018-04-19T15:31:34.831Z,5.57
2018-04-19T15:34:02.987Z,4.60
2018-04-19T15:36:32.715Z,5.73
2018-04-19T15:39:01.132Z,9.33
2018-04-19T15:41:29.727Z,6.03
2018-04-19T15:43:58.185Z,5.37
2018-04-19T15:46:26.248Z,8.23
2018-04-19T15:48:56.238Z,8.73
2018-04-19T15:51:25.271Z,6.13
2018-04-19T15:53:53.320Z,5.20
2018-04-19T15:56:21.754Z,7.87
2018-04-19T15:58:49.860Z,5.00
2018-04-19T16:01:17.903Z,5.43
2018-04-19T16:03:45.983Z,5.77
2018-04-19T16:06:19.633Z,7.10
2018-04-19T16:08:53.190Z,34.30
2018-04-19T16:11:21.337Z,37.00
2018-04-19T16:13:49.411Z,35.33
2018-04-19T16:16:17.497Z,40.90
2018-04-19T16:18:45.604Z,38.37
2018-04-19T16:21:14.444Z,39.33
2018-04-19T16:23:42.550Z,42.13
2018-04-19T16:26:11.623Z,41.53
2018-04-19T16:28:39.717Z,46.03
2018-04-19T16:31:07.815Z,43.00
2018-04-19T16:33:35.931Z,42.77
2018-04-19T16:36:09.447Z,42.30
2018-04-19T16:38:38.404Z,35.37
2018-04-19T16:41:06.538Z,43.00
2018-04-19T16:43:35.078Z,39.80
2018-04-19T16:46:03.179Z,41.57
2018-04-19T16:48:31.600Z,48.47
2018-04-19T16:50:59.722Z,43.03
2018-04-19T16:53:27.815Z,45.27
2018-04-19T16:55:55.898Z,41.10
2018-04-19T16:58:23.986Z,38.67
2018-04-19T17:00:52.121Z,44.10
2018-04-19T17:03:20.239Z,38.53
2018-04-19T17:05:48.328Z,42.57
2018-04-19T17:08:16.468Z,45.13
2018-04-19T17:10:44.584Z,43.97
2018-04-19T17:13:12.741Z,44.80
2018-04-19T17:15:40.830Z,44.43
2018-04-19T17:18:08.974Z,43.20
2018-04-19T17:20:37.127Z,44.33
2018-04-19T17:23:05.199Z,46.20
2018-04-19T17:35:19.105Z,41.83
2018-04-19T17:37:47.228Z,34.90
2018-04-19T17:40:15.368Z,43.67
2018-04-19T17:42:45.091Z,37.70
2018-04-19T17:45:13.536Z,37.03
2018-04-19T17:47:41.785Z,41.73
2018-04-19T17:50:09.880Z,41.70
2018-04-19T17:52:39.304Z,45.07
2018-04-19T17:55:12.933Z,43.17
2018-04-19T17:57:41.035Z,43.60
2018-04-19T18:00:09.151Z,41.60
2018-04-19T18:02:37.244Z,48.73
2018-04-19T18:05:10.292Z,47.60
2018-04-19T18:07:38.654Z,42.27
2018-04-19T18:10:06.747Z,46.97
2018-04-19T18:12:34.875Z,46.03
2018-04-19T18:15:02.993Z,44.23
2018-04-19T18:20:06.691Z,45.20
2018-04-19T18:22:34.784Z,52.10
2018-04-19T18:25:04.165Z,45.83
2018-04-19T18:27:32.643Z,51.60
2018-04-19T18:30:00.712Z,47.40
2018-04-19T18:32:28.807Z,50.37
2018-04-19T18:34:56.924Z,49.23
2018-04-19T18:37:25.017Z,46.73
2018-04-19T18:39:53.120Z,47.93
2018-04-19T18:42:21.948Z,45.07
2018-04-19T18:44:50.851Z,48.17
2018-04-19T18:47:18.951Z,49.53
2018-04-19T18:49:47.056Z,51.17
2018-04-19T18:52:15.182Z,48.77
2018-04-19T18:54:43.273Z,49.30
2018-04-19T18:57:11.718Z,47.63
2018-04-19T18:59:39.868Z,48.83
2018-04-19T19:02:08.024Z,47.07
2018-04-19T19:04:36.871Z,48.37
2018-04-19T19:07:04.948Z,51.33
2018-04-19T19:09:33.059Z,51.10
2018-04-19T19:12:01.170Z,50.03
2018-04-19T19:14:29.253Z,45.43
2018-04-19T19:16:57.357Z,49.57
2018-04-19T19:19:37.257Z,51.30
2018-04-19T19:22:05.373Z,53.87
2018-04-19T19:24:34.214Z,49.57
2018-04-19T19:27:02.510Z,52.90
2018-04-19T19:29:30.578Z,51.77
2018-04-19T19:31:58.677Z,56.10
2018-04-19T19:34:26.782Z,51.50
2018-04-19T19:36:54.879Z,56.10
2018-04-19T19:39:24.123Z,55.00
2018-04-19T19:41:52.241Z,55.17
2018-04-19T19:44:20.325Z,54.70
2018-04-19T19:46:48.406Z,55.27
2018-04-19T19:49:17.501Z,52.47
2018-04-19T19:51:50.847Z,55.23
2018-04-19T19:54:19.023Z,55.53
2018-04-19T19:56:47.449Z,54.80
2018-04-19T19:59:15.512Z,52.80
2018-04-19T20:01:43.877Z,53.90
2018-04-19T20:04:12.363Z,58.63
2018-04-19T20:06:40.439Z,53.53
2018-04-19T20:09:09.207Z,56.47
2018-04-19T20:11:37.296Z,52.43
2018-04-19T20:14:06.660Z,52.40
2018-04-19T20:16:34.724Z,55.60
2018-04-19T20:19:02.840Z,55.57
2018-04-19T20:21:30.963Z,57.80
2018-04-19T20:23:59.108Z,56.50
2018-04-19T20:26:28.569Z,57.00
2018-04-19T20:28:56.674Z,55.60
2018-04-19T20:31:24.760Z,54.70
2018-04-19T20:33:53.003Z,59.53
2018-04-19T20:36:21.923Z,55.10
2018-04-19T20:38:50.024Z,54.60
2018-04-19T20:41:18.152Z,60.23
2018-04-19T20:43:46.963Z,56.40
2018-04-19T20:46:15.771Z,53.80
2018-04-19T20:48:43.878Z,55.00
2018-04-19T21:04:12.020Z,52.83
2018-04-19T21:06:40.114Z,57.20
2018-04-19T21:09:08.999Z,56.73
2018-04-19T21:11:37.119Z,53.73
2018-04-19T21:14:05.213Z,60.00
2018-04-19T21:16:33.300Z,61.97
2018-04-19T21:19:01.410Z,58.43
2018-04-19T21:21:29.654Z,56.33
2018-04-19T21:23:57.757Z,61.03
2018-04-19T21:26:25.831Z,61.10
2018-04-19T21:28:53.919Z,63.80
2018-04-19T21:31:22.766Z,64.33
2018-04-19T21:33:50.855Z,64.40
2018-04-19T21:36:19.714Z,61.63
2018-04-19T21:38:47.826Z,61.60
2018-04-19T21:41:15.948Z,61.20
2018-04-19T21:56:46.120Z,65.90
2018-04-19T21:59:14.212Z,60.53
2018-04-19T22:14:42.848Z,60.53
2018-04-19T22:17:10.948Z,60.13
2018-04-19T22:29:29.373Z,59.30
2018-04-19T22:31:57.448Z,59.43
2018-04-19T22:34:25.547Z,60.87
2018-04-19T22:36:53.672Z,58.80
2018-04-19T22:39:21.910Z,60.23
2018-04-19T22:41:50.008Z,59.03
2018-04-19T22:44:18.146Z,57.90
2018-04-19T22:46:46.262Z,60.93
2018-04-19T22:49:14.367Z,61.70
2018-04-19T22:51:43.519Z,59.50
2018-04-19T22:54:11.619Z,58.90
2018-04-19T22:56:39.702Z,64.00
2018-04-19T22:59:13.446Z,60.30
2018-04-19T23:01:47.096Z,57.33
2018-04-19T23:04:15.263Z,61.43
2018-04-19T23:06:43.356Z,56.33
2018-04-19T23:09:11.507Z,57.33
2018-04-19T23:11:39.632Z,58.33
2018-04-19T23:14:08.399Z,59.87
2018-04-19T23:16:37.298Z,61.77
2018-04-19T23:19:05.447Z,59.47
2018-04-19T23:21:33.626Z,56.73
2018-04-19T23:24:01.803Z,60.40
2018-04-19T23:26:29.902Z,60.93
2018-04-19T23:28:59.142Z,60.57
2018-04-19T23:31:27.258Z,60.17
2018-04-19T23:33:56.238Z,55.43
2018-04-19T23:36:25.142Z,59.07
2018-04-19T23:38:53.250Z,54.33
2018-04-19T23:41:21.975Z,61.63
2018-04-19T23:43:50.092Z,58.63
2018-04-19T23:46:18.482Z,59.70
2018-04-19T23:48:46.576Z,56.47
2018-04-19T23:51:14.673Z,60.17
2018-04-19T23:53:42.770Z,60.70
2018-04-19T23:56:10.893Z,57.37
2018-04-19T23:58:39.076Z,62.67
